Time;durP1;ratioP1;P1;durP2;ratioP2;P2;SDS_P1;SDS_P2;PMS_P1;PMS_P2;Temp;Humidity;BMP_temperature;BMP_pressure;BME280_temperature;BME280_humidity;BME280_pressure;Samples;Min_cycle;Max_cycle;Signal;HPM_P1;HPM_P2
2021/11/23 00:00:50;;;;;;;6.43;3.92;;;2.90;93.30;;;;;;5044135;28;20029;-77
2021/11/23 00:03:18;;;;;;;5.70;3.97;;;2.90;93.80;;;;;;5056224;28;20086;-76
2021/11/23 00:05:46;;;;;;;6.72;3.28;;;2.90;93.40;;;;;;5048367;28;20403;-77
2021/11/23 00:08:12;;;;;;;6.88;3.40;;;2.90;93.40;;;;;;5050540;28;20037;-77
2021/11/23 00:10:40;;;;;;;6.07;3.88;;;2.90;93.30;;;;;;5053961;28;20048;-77
2021/11/23 00:13:10;;;;;;;6.82;4.15;;;2.90;93.50;;;;;;5056592;28;20044;-77
2021/11/23 00:15:36;;;;;;;6.97;4.07;;;2.80;93.50;;;;;;5046598;28;20443;-77
2021/11/23 00:18:07;;;;;;;7.60;4.20;;;2.80;93.50;;;;;;5047240;28;20036;-76
2021/11/23 00:20:35;;;;;;;6.05;4.00;;;2.80;93.50;;;;;;5057906;28;20056;-76
2021/11/23 00:23:01;;;;;;;8.10;4.50;;;2.90;93.60;;;;;;5044548;28;20022;-77
2021/11/23 00:25:28;;;;;;;6.90;4.35;;;2.80;93.50;;;;;;5049892;28;20033;-77
2021/11/23 00:27:55;;;;;;;10.27;4.75;;;2.80;93.60;;;;;;5051678;28;20118;-77
2021/11/23 00:30:24;;;;;;;9.60;4.90;;;2.90;93.70;;;;;;5047693;28;20032;-77
2021/11/23 00:32:51;;;;;;;10.75;4.78;;;2.80;93.80;;;;;;5041168;28;20121;-77
2021/11/23 00:35:18;;;;;;;8.25;5.18;;;2.90;93.80;;;;;;5054357;28;20029;-77
2021/11/23 00:37:47;;;;;;;8.63;4.75;;;2.80;93.70;;;;;;5044328;28;20822;-77
2021/11/23 00:40:14;;;;;;;8.82;5.13;;;2.90;93.90;;;;;;5044404;28;20028;-76
2021/11/23 00:42:40;;;;;;;9.07;4.82;;;2.80;94.10;;;;;;5055102;28;20020;-77
2021/11/23 00:45:08;;;;;;;9.48;5.00;;;2.90;93.80;;;;;;5046952;28;20075;-77
2021/11/23 00:47:34;;;;;;;6.60;4.53;;;2.90;93.90;;;;;;5045495;28;20132;-77
2021/11/23 00:50:00;;;;;;;9.23;5.45;;;2.90;93.90;;;;;;5045009;28;20041;-77
2021/11/23 00:52:26;;;;;;;12.73;5.45;;;2.90;94.00;;;;;;5052553;28;20048;-77
2021/11/23 00:54:52;;;;;;;9.20;5.28;;;2.90;94.00;;;;;;5044826;28;20029;-77
2021/11/23 00:57:18;;;;;;;8.30;5.45;;;2.90;94.00;;;;;;5047036;28;20488;-76
2021/11/23 00:59:43;;;;;;;10.23;5.78;;;2.90;93.90;;;;;;5054799;28;20110;-77
2021/11/23 01:02:11;;;;;;;8.35;5.18;;;2.90;93.80;;;;;;5048629;28;20029;-76
2021/11/23 01:04:37;;;;;;;9.57;5.70;;;2.90;93.80;;;;;;5048600;28;20033;-77
2021/11/23 01:07:04;;;;;;;10.70;5.90;;;2.90;93.80;;;;;;5047478;28;20163;-77
2021/11/23 01:09:30;;;;;;;8.85;5.78;;;2.90;93.60;;;;;;5053727;28;20214;-76
2021/11/23 01:11:57;;;;;;;8.38;5.78;;;2.80;93.60;;;;;;5048507;28;20032;-76
2021/11/23 01:14:23;;;;;;;12.40;6.15;;;2.90;93.80;;;;;;5054373;28;20063;-77
2021/11/23 01:16:49;;;;;;;8.88;5.63;;;2.80;93.90;;;;;;5042774;28;20029;-76
2021/11/23 01:19:16;;;;;;;11.15;5.72;;;2.80;94.00;;;;;;5053395;28;20029;-77
2021/11/23 01:21:43;;;;;;;10.52;5.72;;;2.80;93.90;;;;;;5049552;28;20031;-77
2021/11/23 01:24:10;;;;;;;12.63;5.88;;;2.90;94.00;;;;;;5045040;28;20496;-76
2021/11/23 01:26:36;;;;;;;10.05;5.78;;;2.90;93.90;;;;;;5044160;28;20028;-77
2021/11/23 01:29:04;;;;;;;8.80;5.55;;;2.90;93.90;;;;;;5049978;28;20060;-76
2021/11/23 01:31:30;;;;;;;12.07;6.13;;;2.90;93.90;;;;;;5051024;28;20040;-76
2021/11/23 01:33:56;;;;;;;10.20;6.03;;;2.90;94.00;;;;;;5049022;28;20029;-76
2021/11/23 01:36:23;;;;;;;11.23;6.20;;;2.90;94.00;;;;;;5053403;28;20040;-77
2021/11/23 01:38:49;;;;;;;11.85;6.10;;;2.90;94.00;;;;;;5057099;28;20041;-77
2021/11/23 01:41:15;;;;;;;13.15;6.25;;;2.90;93.90;;;;;;5056051;28;20025;-77
2021/11/23 01:43:40;;;;;;;11.65;6.85;;;2.90;93.90;;;;;;5059261;28;20135;-76
2021/11/23 01:46:06;;;;;;;11.13;6.13;;;2.90;93.90;;;;;;5047763;28;20079;-77
2021/11/23 01:48:34;;;;;;;9.15;6.20;;;2.80;93.90;;;;;;5049770;28;20068;-76
2021/11/23 01:51:01;;;;;;;11.48;5.72;;;2.90;94.00;;;;;;5054328;28;20036;-76
2021/11/23 01:53:27;;;;;;;13.63;6.40;;;2.90;93.90;;;;;;5053253;28;20047;-76
2021/11/23 01:55:53;;;;;;;12.32;6.72;;;2.90;93.90;;;;;;5050275;28;20035;-77
2021/11/23 01:58:20;;;;;;;10.98;6.40;;;2.90;94.10;;;;;;5052960;28;20028;-76
2021/11/23 02:00:46;;;;;;;13.35;7.45;;;2.90;94.00;;;;;;5050411;28;20111;-76
2021/11/23 02:03:14;;;;;;;10.25;7.18;;;3.00;93.90;;;;;;5056396;28;20174;-76
2021/11/23 02:05:40;;;;;;;13.60;6.60;;;3.10;94.00;;;;;;5046784;28;20531;-76
2021/11/23 02:08:07;;;;;;;12.60;7.45;;;3.20;93.90;;;;;;5049200;28;20837;-76
2021/11/23 02:10:33;;;;;;;11.63;7.18;;;3.30;93.80;;;;;;5047565;28;20108;-77
2021/11/23 02:13:00;;;;;;;10.00;6.20;;;3.40;93.60;;;;;;5048996;28;20029;-76
2021/11/23 02:15:26;;;;;;;11.57;6.72;;;3.40;93.40;;;;;;5046954;28;20087;-76
2021/11/23 02:17:52;;;;;;;13.32;6.18;;;3.40;93.40;;;;;;5045724;28;20032;-76
2021/11/23 02:20:20;;;;;;;11.73;7.35;;;3.30;93.40;;;;;;5054485;28;20056;-76
2021/11/23 02:22:47;;;;;;;10.27;6.30;;;3.40;93.50;;;;;;5049205;28;20029;-76
2021/11/23 02:25:14;;;;;;;10.55;6.20;;;3.40;93.40;;;;;;5050775;28;20029;-76
2021/11/23 02:27:41;;;;;;;11.77;6.28;;;3.40;93.30;;;;;;5045611;28;20112;-76
2021/11/23 02:30:09;;;;;;;8.95;6.10;;;3.40;93.20;;;;;;5043622;28;20835;-76
2021/11/23 02:32:52;;;;;;;8.75;5.30;;;3.40;93.30;;;;;;5041206;28;20059;-76
2021/11/23 02:35:23;;;;;;;13.52;6.28;;;3.30;93.40;;;;;;5042661;28;20087;-76
2021/11/23 02:37:53;;;;;;;10.90;5.60;;;3.30;93.40;;;;;;5052186;28;20064;-76
2021/11/23 02:40:20;;;;;;;13.15;6.20;;;3.40;93.40;;;;;;5052574;28;20744;-77
2021/11/23 02:42:47;;;;;;;12.73;6.57;;;3.30;93.60;;;;;;5045298;28;20044;-76
2021/11/23 02:45:17;;;;;;;12.57;6.70;;;3.30;93.60;;;;;;5043791;28;20025;-76
2021/11/23 02:47:43;;;;;;;16.83;6.38;;;3.30;93.50;;;;;;5054750;28;20036;-76
2021/11/23 02:50:14;;;;;;;12.27;6.78;;;3.30;93.50;;;;;;5054317;28;20107;-76
2021/11/23 02:52:43;;;;;;;11.48;6.38;;;3.30;93.60;;;;;;5046457;28;20044;-75
2021/11/23 02:55:09;;;;;;;9.30;6.18;;;3.20;93.50;;;;;;5046031;28;20122;-76
2021/11/23 02:57:35;;;;;;;11.45;6.57;;;3.30;93.60;;;;;;5052044;28;20556;-76
2021/11/23 03:00:16;;;;;;;12.55;7.15;;;3.30;93.70;;;;;;5051802;28;20028;-76
2021/11/23 03:02:46;;;;;;;14.77;7.40;;;3.30;93.80;;;;;;5046432;28;20048;-76
2021/11/23 03:05:13;;;;;;;12.07;6.63;;;3.50;93.80;;;;;;5051265;28;20396;-76
2021/11/23 03:07:39;;;;;;;13.85;6.85;;;3.60;93.70;;;;;;5051447;28;20090;-76
2021/11/23 03:10:08;;;;;;;11.45;6.38;;;3.80;93.60;;;;;;5048474;28;20120;-76
2021/11/23 03:12:34;;;;;;;11.93;6.45;;;3.90;93.40;;;;;;5041275;28;20032;-76
2021/11/23 03:15:01;;;;;;;14.93;7.03;;;3.90;93.10;;;;;;5038379;28;20064;-76
2021/11/23 03:17:27;;;;;;;12.18;6.55;;;4.00;93.10;;;;;;5041594;28;20037;-76
2021/11/23 03:19:53;;;;;;;17.25;6.90;;;4.00;92.80;;;;;;5045766;28;20437;-76
2021/11/23 03:22:20;;;;;;;11.05;6.13;;;4.00;92.80;;;;;;5041658;28;20143;-76
2021/11/23 03:24:46;;;;;;;13.63;7.18;;;4.10;92.80;;;;;;5051802;28;20024;-76
2021/11/23 03:27:13;;;;;;;17.75;6.82;;;4.20;92.70;;;;;;5051716;28;20044;-75
2021/11/23 03:29:40;;;;;;;10.23;6.13;;;4.30;92.70;;;;;;5046991;28;20060;-76
2021/11/23 03:32:08;;;;;;;14.05;5.90;;;4.40;92.50;;;;;;5050172;28;20492;-76
2021/11/23 03:34:38;;;;;;;19.48;6.82;;;4.40;92.50;;;;;;5053053;28;20059;-76
2021/11/23 03:37:06;;;;;;;12.60;6.50;;;4.50;92.40;;;;;;5046878;28;20030;-76
2021/11/23 03:39:33;;;;;;;8.10;5.10;;;4.60;92.30;;;;;;5047002;28;20051;-76
2021/11/23 03:41:59;;;;;;;8.48;5.60;;;4.70;92.00;;;;;;5049791;28;20029;-76
2021/11/23 03:44:26;;;;;;;9.82;5.80;;;4.80;92.00;;;;;;5041374;28;20028;-76
2021/11/23 03:46:52;;;;;;;9.98;5.70;;;4.90;92.00;;;;;;5045708;28;20017;-77
2021/11/23 03:49:19;;;;;;;10.98;6.28;;;4.90;91.90;;;;;;5045595;28;20032;-76
2021/11/23 03:51:44;;;;;;;10.77;5.90;;;5.00;92.20;;;;;;5049099;28;20087;-76
2021/11/23 03:54:10;;;;;;;14.48;6.10;;;5.00;91.80;;;;;;5044298;28;20040;-77
2021/11/23 03:56:36;;;;;;;9.75;5.95;;;5.10;91.90;;;;;;5043863;28;20614;-76
2021/11/23 03:59:02;;;;;;;10.48;5.82;;;5.20;91.80;;;;;;5044623;28;20035;-77
2021/11/23 04:01:28;;;;;;;11.70;5.65;;;5.20;91.70;;;;;;5048967;28;20696;-76
2021/11/23 04:03:54;;;;;;;10.48;5.60;;;5.20;91.70;;;;;;5044165;28;20029;-76
2021/11/23 04:06:20;;;;;;;12.35;5.30;;;5.30;91.70;;;;;;5048945;28;20040;-76
2021/11/23 04:08:46;;;;;;;9.35;5.47;;;5.30;91.60;;;;;;5044856;28;20041;-76
2021/11/23 04:11:11;;;;;;;12.05;5.38;;;5.40;91.60;;;;;;5041458;28;20108;-77
2021/11/23 04:13:37;;;;;;;8.15;5.50;;;5.30;91.50;;;;;;5050317;28;20044;-76
2021/11/23 04:16:04;;;;;;;10.95;5.22;;;5.40;91.60;;;;;;5048562;28;20040;-76
2021/11/23 04:18:30;;;;;;;8.60;4.93;;;5.40;91.60;;;;;;5048233;28;20033;-76
2021/11/23 04:20:56;;;;;;;8.75;4.90;;;5.50;91.70;;;;;;5048547;28;20162;-76
2021/11/23 04:23:23;;;;;;;12.02;5.25;;;5.50;91.70;;;;;;5051620;28;20034;-76
2021/11/23 04:25:49;;;;;;;9.18;5.22;;;5.50;91.70;;;;;;5048211;28;20089;-76
2021/11/23 04:28:15;;;;;;;12.60;6.05;;;5.50;91.80;;;;;;5048680;28;20032;-77
2021/11/23 04:30:41;;;;;;;9.32;4.75;;;5.50;92.00;;;;;;5054456;28;20132;-77
2021/11/23 04:33:08;;;;;;;8.18;4.97;;;5.40;92.30;;;;;;5049910;28;20060;-77
2021/11/23 04:35:33;;;;;;;8.68;5.40;;;5.40;92.60;;;;;;5051154;28;20041;-76
2021/11/23 04:37:59;;;;;;;9.05;4.95;;;5.40;92.80;;;;;;5047067;28;20079;-76
2021/11/23 04:40:25;;;;;;;10.70;5.55;;;5.30;93.10;;;;;;5051487;28;20028;-76
2021/11/23 04:42:51;;;;;;;8.48;5.05;;;5.30;93.50;;;;;;5050438;28;20554;-77
2021/11/23 04:45:17;;;;;;;10.63;4.93;;;5.30;93.70;;;;;;5043414;28;20026;-77
2021/11/23 04:47:43;;;;;;;10.30;4.32;;;5.30;93.70;;;;;;5052079;28;20492;-77
2021/11/23 04:50:11;;;;;;;11.75;5.60;;;5.40;93.80;;;;;;5049619;28;20216;-77
2021/11/23 04:52:37;;;;;;;8.43;5.43;;;5.40;93.80;;;;;;5045043;28;20025;-76
2021/11/23 04:55:03;;;;;;;14.30;5.22;;;5.50;93.80;;;;;;5048448;28;20028;-77
2021/11/23 04:57:29;;;;;;;11.65;6.32;;;5.50;93.90;;;;;;5043980;28;20032;-77
2021/11/23 04:59:56;;;;;;;13.25;5.40;;;5.40;94.00;;;;;;5051537;28;20036;-77
2021/11/23 05:02:22;;;;;;;9.20;4.88;;;5.50;94.10;;;;;;5045481;28;20505;-77
2021/11/23 05:04:48;;;;;;;9.13;4.88;;;5.50;94.10;;;;;;5044149;28;20523;-76
2021/11/23 05:07:14;;;;;;;10.73;4.93;;;5.60;94.10;;;;;;5045879;28;20334;-76
2021/11/23 05:09:40;;;;;;;12.27;5.28;;;5.70;94.10;;;;;;5043343;28;20067;-76
2021/11/23 05:12:06;;;;;;;10.52;6.13;;;5.70;94.10;;;;;;5049686;28;20463;-76
2021/11/23 05:14:32;;;;;;;13.30;4.93;;;5.80;94.00;;;;;;5059631;28;20032;-76
2021/11/23 05:16:58;;;;;;;12.50;5.32;;;5.80;94.00;;;;;;5047032;28;20070;-77
2021/11/23 05:19:23;;;;;;;13.27;5.53;;;5.80;94.10;;;;;;5047536;28;20029;-76
2021/11/23 05:21:49;;;;;;;9.50;4.63;;;5.80;94.20;;;;;;5046060;28;20071;-77
2021/11/23 05:24:15;;;;;;;9.98;5.47;;;5.90;94.10;;;;;;5051440;28;20119;-76
2021/11/23 05:26:42;;;;;;;14.75;4.95;;;5.80;94.30;;;;;;5052747;28;20025;-77
2021/11/23 05:29:10;;;;;;;10.25;6.30;;;5.90;94.40;;;;;;5051217;28;20032;-77
2021/11/23 05:31:36;;;;;;;11.85;5.45;;;5.90;94.40;;;;;;5055728;28;20056;-76
2021/11/23 05:34:02;;;;;;;11.32;5.53;;;6.00;94.30;;;;;;5047427;28;20043;-77
2021/11/23 05:36:28;;;;;;;11.70;5.47;;;5.90;94.40;;;;;;5053048;28;20667;-76
2021/11/23 05:38:54;;;;;;;13.27;6.07;;;5.90;94.40;;;;;;5050973;28;20124;-77
2021/11/23 05:41:20;;;;;;;11.05;5.88;;;6.00;94.30;;;;;;5053523;28;20047;-77
2021/11/23 05:43:46;;;;;;;12.63;5.88;;;6.00;94.20;;;;;;5046050;28;20032;-76
2021/11/23 05:46:14;;;;;;;12.95;6.10;;;6.10;94.10;;;;;;5047786;28;20033;-77
2021/11/23 05:48:40;;;;;;;13.00;6.22;;;6.10;93.90;;;;;;5045759;28;20751;-77
2021/11/23 05:51:06;;;;;;;15.75;6.88;;;6.20;93.80;;;;;;5041234;28;20044;-77
2021/11/23 05:53:33;;;;;;;16.90;7.28;;;6.20;93.80;;;;;;5049055;28;20036;-77
2021/11/23 05:55:59;;;;;;;8.63;5.43;;;6.20;93.80;;;;;;5050574;28;20400;-77
2021/11/23 05:58:26;;;;;;;13.32;5.95;;;6.20;93.80;;;;;;5044421;28;20518;-76
2021/11/23 06:00:55;;;;;;;16.38;5.97;;;6.20;93.70;;;;;;5045596;28;20443;-77
2021/11/23 06:03:21;;;;;;;14.27;5.80;;;6.30;93.70;;;;;;5052725;28;20112;-77
2021/11/23 06:05:48;;;;;;;11.18;6.50;;;6.30;93.70;;;;;;5041637;28;20052;-77
2021/11/23 06:08:14;;;;;;;14.70;6.32;;;6.20;93.70;;;;;;5043543;28;20032;-76
2021/11/23 06:10:41;;;;;;;11.57;6.90;;;6.30;93.60;;;;;;5047780;28;20036;-77
2021/11/23 06:13:07;;;;;;;11.40;6.75;;;6.30;93.70;;;;;;5048305;28;20537;-77
2021/11/23 06:15:33;;;;;;;12.75;6.28;;;6.40;93.70;;;;;;5047909;28;20753;-76
2021/11/23 06:18:02;;;;;;;14.70;6.10;;;6.40;93.60;;;;;;5041355;28;20115;-77
2021/11/23 06:20:29;;;;;;;12.55;5.93;;;6.40;93.50;;;;;;5046270;28;20033;-76
2021/11/23 06:23:00;;;;;;;15.38;7.20;;;6.40;93.60;;;;;;5047755;28;20582;-77
2021/11/23 06:25:27;;;;;;;11.55;6.68;;;6.40;93.60;;;;;;5046079;28;20028;-77
2021/11/23 06:27:54;;;;;;;25.92;11.98;;;6.40;93.60;;;;;;5042586;28;20083;-77
2021/11/23 06:30:22;;;;;;;18.15;8.70;;;6.50;93.60;;;;;;5045455;28;20125;-76
2021/11/23 06:32:48;;;;;;;17.55;6.78;;;6.50;93.40;;;;;;5048738;28;20028;-77
2021/11/23 06:35:15;;;;;;;16.33;7.20;;;6.50;93.40;;;;;;5050127;28;20138;-77
2021/11/23 06:37:41;;;;;;;11.73;6.80;;;6.50;93.40;;;;;;5036294;28;20052;-76
2021/11/23 06:40:08;;;;;;;12.18;6.80;;;6.50;93.50;;;;;;5046370;28;20473;-77
2021/11/23 06:42:34;;;;;;;12.07;7.57;;;6.50;93.50;;;;;;5048397;28;20035;-76
2021/11/23 06:45:00;;;;;;;16.85;9.43;;;6.50;93.40;;;;;;5043805;28;20032;-77
2021/11/23 06:47:26;;;;;;;13.60;7.60;;;6.50;93.40;;;;;;5046482;28;20075;-76
2021/11/23 06:49:52;;;;;;;17.52;7.82;;;6.60;93.40;;;;;;5042356;28;20029;-76
2021/11/23 06:52:19;;;;;;;14.88;7.53;;;6.70;93.30;;;;;;5050977;28;20101;-76
2021/11/23 06:54:45;;;;;;;16.05;7.90;;;6.60;93.30;;;;;;5042528;28;20029;-76
2021/11/23 06:57:12;;;;;;;14.18;7.70;;;6.60;93.40;;;;;;5044182;28;20033;-77
2021/11/23 06:59:39;;;;;;;17.65;7.10;;;6.60;93.40;;;;;;5046639;28;20692;-77
2021/11/23 07:02:06;;;;;;;12.90;7.45;;;6.60;93.50;;;;;;5046756;28;20040;-76
2021/11/23 07:04:32;;;;;;;16.75;7.50;;;6.60;93.60;;;;;;5047386;28;20024;-76
2021/11/23 07:06:58;;;;;;;16.13;7.82;;;6.70;93.60;;;;;;5045559;28;20032;-77
2021/11/23 07:09:24;;;;;;;14.90;7.82;;;6.70;93.50;;;;;;5044574;28;20556;-77
2021/11/23 07:11:52;;;;;;;20.27;8.13;;;6.80;93.50;;;;;;5051563;28;20044;-77
2021/11/23 07:14:19;;;;;;;14.43;8.43;;;6.80;93.40;;;;;;5043891;28;20139;-77
2021/11/23 07:16:45;;;;;;;23.70;8.80;;;6.80;93.30;;;;;;5048483;28;20064;-76
2021/11/23 07:19:12;;;;;;;19.60;8.60;;;6.90;93.40;;;;;;5047491;28;20037;-77
2021/11/23 07:21:38;;;;;;;14.88;8.02;;;6.90;93.40;;;;;;5050902;28;20044;-76
2021/11/23 07:24:04;;;;;;;19.00;7.88;;;6.90;93.30;;;;;;5047157;28;20040;-76
2021/11/23 07:26:31;;;;;;;17.48;8.02;;;6.90;93.70;;;;;;5042111;28;20068;-76
2021/11/23 07:28:58;;;;;;;17.25;8.32;;;6.90;93.40;;;;;;5051527;28;20041;-76
2021/11/23 07:31:24;;;;;;;23.90;8.70;;;7.00;93.50;;;;;;5045980;28;20041;-75
2021/11/23 07:33:51;;;;;;;19.40;8.20;;;7.00;93.50;;;;;;5047516;28;20032;-77
2021/11/23 07:36:19;;;;;;;21.20;8.70;;;7.10;93.30;;;;;;5044838;28;20414;-75
2021/11/23 07:38:46;;;;;;;18.88;9.25;;;7.20;93.30;;;;;;5041848;28;20033;-75
2021/11/23 07:41:12;;;;;;;26.55;10.98;;;7.20;93.40;;;;;;5053585;28;20037;-77
2021/11/23 07:43:38;;;;;;;19.92;9.30;;;7.20;93.40;;;;;;5048327;28;20139;-75
2021/11/23 07:46:04;;;;;;;24.42;8.23;;;7.20;93.40;;;;;;5047767;28;20070;-75
2021/11/23 07:48:30;;;;;;;21.45;10.43;;;7.30;93.40;;;;;;5044937;28;20028;-75
2021/11/23 07:50:56;;;;;;;26.35;9.65;;;7.30;93.40;;;;;;5041464;28;20381;-75
2021/11/23 07:53:22;;;;;;;20.80;9.00;;;7.30;93.30;;;;;;5049461;28;20389;-75
2021/11/23 07:55:51;;;;;;;18.00;9.52;;;7.40;93.30;;;;;;5049325;28;20037;-75
2021/11/23 07:58:17;;;;;;;23.15;10.07;;;7.40;93.30;;;;;;5044274;28;20025;-77
2021/11/23 08:00:43;;;;;;;16.85;7.70;;;7.40;93.30;;;;;;5055508;28;20032;-75
2021/11/23 08:03:11;;;;;;;19.90;8.48;;;7.40;93.40;;;;;;5047418;28;20805;-75
2021/11/23 08:05:38;;;;;;;15.15;7.07;;;7.50;93.50;;;;;;5055376;28;20082;-75
2021/11/23 08:08:05;;;;;;;17.27;8.18;;;7.40;93.60;;;;;;5046958;28;20752;-75
2021/11/23 08:10:32;;;;;;;21.58;8.27;;;7.50;93.60;;;;;;5049451;28;20032;-75
2021/11/23 08:12:58;;;;;;;17.08;8.10;;;7.50;93.50;;;;;;5050399;28;20126;-75
2021/11/23 08:15:24;;;;;;;17.35;8.60;;;7.50;93.50;;;;;;5049968;28;20705;-75
2021/11/23 08:17:51;;;;;;;19.20;8.60;;;7.50;93.50;;;;;;5050745;28;20032;-76
2021/11/23 08:20:17;;;;;;;17.90;8.10;;;7.50;93.60;;;;;;5055443;28;20112;-75
2021/11/23 08:22:45;;;;;;;24.27;10.30;;;7.60;93.60;;;;;;5045833;28;20024;-75
2021/11/23 08:25:12;;;;;;;17.95;9.25;;;7.60;93.50;;;;;;5044882;28;20033;-75
2021/11/23 08:27:39;;;;;;;21.27;8.52;;;7.60;93.50;;;;;;5047449;28;20674;-75
2021/11/23 08:30:07;;;;;;;16.48;9.48;;;7.60;93.50;;;;;;5043395;28;20048;-75
2021/11/23 08:32:33;;;;;;;18.08;8.27;;;7.60;93.50;;;;;;5046714;28;20033;-75
2021/11/23 08:35:00;;;;;;;18.08;9.98;;;7.70;93.50;;;;;;5048303;28;20378;-75
2021/11/23 08:37:27;;;;;;;21.05;10.60;;;7.70;93.30;;;;;;5042966;28;20250;-75
2021/11/23 08:39:56;;;;;;;23.60;10.82;;;7.70;93.30;;;;;;5049323;28;20052;-75
2021/11/23 08:42:23;;;;;;;23.10;10.70;;;7.70;93.40;;;;;;5048085;28;20035;-75
2021/11/23 08:44:49;;;;;;;21.42;10.00;;;7.70;93.40;;;;;;5050699;28;20400;-75
2021/11/23 08:47:16;;;;;;;23.13;9.70;;;7.70;93.40;;;;;;5045344;28;20496;-75
2021/11/23 08:49:43;;;;;;;24.27;9.55;;;7.80;93.60;;;;;;5047354;28;20166;-75
2021/11/23 08:52:10;;;;;;;18.13;9.75;;;7.80;93.30;;;;;;5052839;28;20516;-75
2021/11/23 08:54:35;;;;;;;17.20;9.32;;;7.80;93.10;;;;;;5051554;28;20062;-75
2021/11/23 08:57:04;;;;;;;18.45;10.85;;;7.80;93.30;;;;;;5042801;28;20123;-76
2021/11/23 08:59:33;;;;;;;20.70;10.45;;;7.90;93.20;;;;;;5050427;28;20128;-76
2021/11/23 09:02:00;;;;;;;22.08;10.15;;;8.00;93.10;;;;;;5043174;28;20028;-76
2021/11/23 09:04:28;;;;;;;17.83;9.27;;;8.00;93.00;;;;;;5048637;28;20029;-76
2021/11/23 09:06:54;;;;;;;20.20;10.57;;;8.00;92.90;;;;;;5014333;28;20119;-75
2021/11/23 09:09:27;;;;;;;17.63;10.18;;;8.10;93.00;;;;;;5042196;28;20759;-74
2021/11/23 09:11:58;;;;;;;18.00;10.32;;;8.10;93.20;;;;;;5040579;28;20573;-74
2021/11/23 09:14:25;;;;;;;22.05;10.05;;;8.10;93.00;;;;;;5028617;28;20052;-76
2021/11/23 09:16:57;;;;;;;20.58;9.50;;;8.10;92.90;;;;;;5045425;28;20029;-74
2021/11/23 09:19:27;;;;;;;21.65;10.23;;;8.10;92.90;;;;;;5028258;28;20041;-74
2021/11/23 09:21:54;;;;;;;18.25;8.27;;;8.20;92.90;;;;;;5040178;28;20041;-74
2021/11/23 09:24:21;;;;;;;16.75;9.23;;;8.10;92.90;;;;;;5026014;28;20040;-74
2021/11/23 09:26:50;;;;;;;22.88;10.23;;;8.10;93.00;;;;;;5048151;28;20033;-74
2021/11/23 09:29:17;;;;;;;18.77;10.02;;;8.10;93.00;;;;;;5043004;28;20124;-74
2021/11/23 09:31:53;;;;;;;18.75;8.48;;;8.30;93.00;;;;;;5050554;28;20383;-74
2021/11/23 09:34:27;;;;;;;24.45;9.60;;;8.40;92.80;;;;;;5050089;28;20046;-73
2021/11/23 09:36:54;;;;;;;18.90;8.93;;;8.50;92.60;;;;;;5043860;28;20035;-75
2021/11/23 09:39:20;;;;;;;16.83;9.30;;;8.50;92.50;;;;;;5044726;28;20044;-75
2021/11/23 09:41:46;;;;;;;18.92;8.82;;;8.60;92.40;;;;;;5049365;28;20025;-75
2021/11/23 09:44:13;;;;;;;18.00;9.07;;;8.60;92.30;;;;;;5048449;28;20028;-75
2021/11/23 09:46:39;;;;;;;18.85;8.30;;;8.60;92.20;;;;;;5040948;28;20135;-76
2021/11/23 09:49:08;;;;;;;18.98;9.98;;;8.70;92.60;;;;;;5052014;28;20108;-75
2021/11/23 09:51:35;;;;;;;18.65;11.45;;;8.70;92.20;;;;;;5046894;28;20079;-76
2021/11/23 09:54:05;;;;;;;17.05;9.68;;;8.70;92.30;;;;;;5031997;28;20033;-75
2021/11/23 09:56:33;;;;;;;13.70;7.65;;;8.70;92.30;;;;;;5050722;28;20731;-75
2021/11/23 09:59:01;;;;;;;15.40;7.97;;;8.80;92.30;;;;;;5039766;28;20036;-74
2021/11/23 10:01:30;;;;;;;17.27;8.43;;;8.80;92.20;;;;;;5033519;28;20029;-75
2021/11/23 10:04:04;;;;;;;19.63;9.07;;;8.80;92.10;;;;;;5050190;28;20187;-75
2021/11/23 10:06:31;;;;;;;16.40;8.55;;;8.80;92.20;;;;;;5047245;28;20037;-75
2021/11/23 10:08:58;;;;;;;15.80;8.70;;;8.80;92.00;;;;;;5037955;28;20036;-77
2021/11/23 10:11:31;;;;;;;20.20;9.40;;;8.70;92.10;;;;;;5042465;28;20037;-77
2021/11/23 10:14:04;;;;;;;17.27;9.50;;;8.80;92.30;;;;;;5053082;28;20225;-76
2021/11/23 10:16:44;;;;;;;20.52;8.40;;;8.70;92.30;;;;;;5040652;28;20040;-80
2021/11/23 10:19:12;;;;;;;16.98;7.85;;;8.70;92.60;;;;;;5057412;28;20032;-77
2021/11/23 10:21:56;;;;;;;15.63;8.80;;;8.70;92.50;;;;;;5051621;28;20036;-79
2021/11/23 10:24:22;;;;;;;15.82;8.25;;;8.80;92.40;;;;;;5041039;28;20025;-74
2021/11/23 10:26:48;;;;;;;14.07;6.70;;;8.80;92.40;;;;;;5024944;28;20033;-74
2021/11/23 10:29:16;;;;;;;21.63;9.95;;;8.90;92.30;;;;;;5029107;28;20037;-74
2021/11/23 10:31:45;;;;;;;15.05;8.05;;;8.90;92.30;;;;;;5044342;28;20048;-74
2021/11/23 10:34:14;;;;;;;14.93;10.30;;;9.00;92.20;;;;;;5043782;28;20032;-74
2021/11/23 10:36:43;;;;;;;16.88;9.07;;;9.00;92.10;;;;;;5046732;28;20033;-73
2021/11/23 10:39:17;;;;;;;11.85;7.13;;;9.10;92.00;;;;;;5049783;28;20124;-74
2021/11/23 10:41:53;;;;;;;14.60;7.93;;;9.20;91.80;;;;;;5050315;28;20028;-73
2021/11/23 10:44:20;;;;;;;16.00;7.57;;;9.20;92.00;;;;;;5041047;28;20456;-72
2021/11/23 10:47:00;;;;;;;10.40;6.25;;;9.20;91.90;;;;;;5044681;28;20064;-74
2021/11/23 10:49:43;;;;;;;16.35;7.32;;;9.20;91.90;;;;;;5048589;28;20397;-73
2021/11/23 10:52:29;;;;;;;15.20;6.93;;;9.20;91.90;;;;;;5045629;28;20036;-73
2021/11/23 10:54:56;;;;;;;15.70;7.33;;;9.30;91.80;;;;;;5047964;28;20029;-73
2021/11/23 10:57:23;;;;;;;12.48;6.65;;;9.30;91.80;;;;;;5044539;28;21129;-73
2021/11/23 10:59:49;;;;;;;12.68;6.40;;;9.30;91.80;;;;;;5041499;28;20520;-73
2021/11/23 11:02:16;;;;;;;12.15;6.78;;;9.30;91.80;;;;;;5041497;28;20087;-73
2021/11/23 11:04:44;;;;;;;16.25;7.15;;;9.40;91.60;;;;;;5032915;28;20097;-73
2021/11/23 11:07:11;;;;;;;13.55;7.00;;;9.40;91.60;;;;;;5041823;28;20336;-74
2021/11/23 11:09:39;;;;;;;12.85;7.00;;;9.40;91.30;;;;;;5046218;28;20040;-73
2021/11/23 11:12:06;;;;;;;20.77;9.48;;;9.50;91.60;;;;;;5051767;28;20037;-73
2021/11/23 11:14:37;;;;;;;11.73;7.35;;;9.50;91.50;;;;;;5047121;28;20043;-82
2021/11/23 11:17:08;;;;;;;11.18;6.68;;;9.60;91.40;;;;;;5047990;28;20044;-79
2021/11/23 11:19:46;;;;;;;12.20;7.00;;;9.80;91.00;;;;;;5048265;28;20040;-79
2021/11/23 11:22:14;;;;;;;12.13;6.70;;;10.00;90.60;;;;;;5021322;28;20025;-80
2021/11/23 11:25:33;;;;;;;10.85;6.28;;;10.10;90.60;;;;;;5049784;28;20043;-76
2021/11/23 11:27:52;;;;;;;15.43;6.68;;;10.20;90.40;;;;;;5044876;28;20095;-81
2021/11/23 11:30:20;;;;;;;11.73;5.93;;;10.30;90.10;;;;;;5047409;28;20111;-79
2021/11/23 11:32:47;;;;;;;9.23;5.57;;;10.40;90.10;;;;;;5049511;28;20024;-83
2021/11/23 11:35:30;;;;;;;10.27;5.90;;;10.40;89.20;;;;;;5051104;28;20611;-80
2021/11/23 11:38:00;;;;;;;11.48;6.78;;;10.40;89.30;;;;;;5049385;28;20036;-79
2021/11/23 11:40:28;;;;;;;13.07;5.95;;;10.50;89.20;;;;;;5047985;28;20025;-77
2021/11/23 11:43:03;;;;;;;10.50;5.22;;;10.60;89.10;;;;;;5050774;28;20069;-74
2021/11/23 11:45:50;;;;;;;11.15;5.38;;;10.70;88.70;;;;;;5062416;28;20028;-76
2021/11/23 11:48:21;;;;;;;;;;;10.80;88.10;;;;;;5056011;28;20447;-74
2021/11/23 11:51:01;;;;;;;9.40;5.60;;;10.80;88.10;;;;;;5047716;28;19920;-73
2021/11/23 11:53:32;;;;;;;9.23;5.53;;;10.90;87.60;;;;;;5052024;28;20051;-75
2021/11/23 11:55:58;;;;;;;7.57;4.45;;;10.90;87.50;;;;;;5043464;28;20044;-72
2021/11/23 11:58:44;;;;;;;9.63;5.30;;;10.80;86.80;;;;;;5045587;28;20662;-74
2021/11/23 12:01:32;;;;;;;8.30;5.20;;;10.80;87.30;;;;;;5047956;28;20056;-72
2021/11/23 12:04:03;;;;;;;14.15;4.90;;;10.80;87.80;;;;;;5052138;28;20520;-72
2021/11/23 12:07:00;;;;;;;8.38;4.35;;;10.70;87.80;;;;;;5052780;28;20044;-73
2021/11/23 12:09:45;;;;;;;11.48;5.03;;;10.70;87.90;;;;;;5055265;28;20115;-72
2021/11/23 12:12:10;;;;;;;10.30;4.38;;;10.80;87.80;;;;;;5046513;28;20699;-72
2021/11/23 12:14:52;;;;;;;10.93;5.38;;;10.80;87.90;;;;;;5050723;28;20020;-72
2021/11/23 12:17:51;;;;;;;11.88;4.85;;;10.70;87.30;;;;;;5046954;28;20110;-73
2021/11/23 12:20:42;;;;;;;9.30;4.35;;;10.70;88.00;;;;;;5055497;28;20037;-74
2021/11/23 12:23:17;;;;;;;8.50;4.90;;;10.70;87.80;;;;;;5046709;28;20055;-74
2021/11/23 12:26:13;;;;;;;8.05;4.93;;;10.60;87.80;;;;;;5045096;28;20029;-76
2021/11/23 12:28:49;;;;;;;8.88;5.55;;;10.60;87.80;;;;;;5053173;28;20028;-80
2021/11/23 12:31:15;;;;;;;8.43;5.40;;;10.50;88.10;;;;;;5042061;28;20441;-80
2021/11/23 12:33:53;;;;;;;9.52;6.28;;;10.50;88.30;;;;;;5053249;28;20029;-78
2021/11/23 12:36:22;;;;;;;9.73;6.07;;;10.50;89.30;;;;;;5056002;28;20056;-77
2021/11/23 12:38:51;;;;;;;11.88;6.25;;;10.30;88.70;;;;;;5041536;28;20025;-77
2021/11/23 12:41:24;;;;;;;9.02;5.00;;;10.20;89.30;;;;;;5056008;28;20111;-77
2021/11/23 12:43:51;;;;;;;11.95;6.07;;;10.20;89.90;;;;;;5046939;28;20032;-83
2021/11/23 12:46:23;;;;;;;11.40;5.95;;;10.20;89.90;;;;;;5048513;28;20031;-81
2021/11/23 12:48:51;;;;;;;10.27;5.97;;;10.30;90.00;;;;;;5059527;28;20036;-77
2021/11/23 12:51:30;;;;;;;12.18;6.38;;;10.30;89.60;;;;;;5048393;28;20040;-81
2021/11/23 12:54:04;;;;;;;15.23;6.03;;;10.30;89.30;;;;;;5044353;28;20033;-78